sensor_id;sensor_type;location;lat;lon;timestamp;temperature;humidity
5705;DHT22;2877;48.238;11.160;2023-02-22T00:00:09;2.30;99.90
5705;DHT22;2877;48.238;11.160;2023-02-22T00:02:46;2.30;99.90
5705;DHT22;2877;48.238;11.160;2023-02-22T00:05:13;2.30;99.90
5705;DHT22;2877;48.238;11.160;2023-02-22T00:07:42;2.30;99.90
5705;DHT22;2877;48.238;11.160;2023-02-22T00:10:09;2.30;99.90
5705;DHT22;2877;48.238;11.160;2023-02-22T00:12:39;2.20;99.90
5705;DHT22;2877;48.238;11.160;2023-02-22T00:15:05;2.20;99.90
5705;DHT22;2877;48.238;11.160;2023-02-22T00:17:30;2.10;99.90
5705;DHT22;2877;48.238;11.160;2023-02-22T00:19:56;2.10;99.90
5705;DHT22;2877;48.238;11.160;2023-02-22T00:22:21;2.30;99.90
5705;DHT22;2877;48.238;11.160;2023-02-22T00:24:47;2.40;99.90
5705;DHT22;2877;48.238;11.160;2023-02-22T00:27:12;2.50;99.90
5705;DHT22;2877;48.238;11.160;2023-02-22T00:29:43;2.60;99.90
5705;DHT22;2877;48.238;11.160;2023-02-22T00:32:09;2.60;99.90
5705;DHT22;2877;48.238;11.160;2023-02-22T00:34:35;2.80;99.90
5705;DHT22;2877;48.238;11.160;2023-02-22T00:37:00;2.90;99.90
5705;DHT22;2877;48.238;11.160;2023-02-22T00:39:31;3.00;99.90
5705;DHT22;2877;48.238;11.160;2023-02-22T00:41:56;3.10;99.90
5705;DHT22;2877;48.238;11.160;2023-02-22T00:44:22;3.20;99.90
5705;DHT22;2877;48.238;11.160;2023-02-22T00:46:48;3.30;99.90
5705;DHT22;2877;48.238;11.160;2023-02-22T00:49:15;3.40;99.90
5705;DHT22;2877;48.238;11.160;2023-02-22T00:51:41;3.40;99.90
5705;DHT22;2877;48.238;11.160;2023-02-22T00:54:07;3.50;99.90
5705;DHT22;2877;48.238;11.160;2023-02-22T00:56:33;3.60;99.90
5705;DHT22;2877;48.238;11.160;2023-02-22T00:58:59;3.60;99.90
5705;DHT22;2877;48.238;11.160;2023-02-22T01:01:26;3.50;99.90
5705;DHT22;2877;48.238;11.160;2023-02-22T01:03:52;3.50;99.90
5705;DHT22;2877;48.238;11.160;2023-02-22T01:06:18;3.40;99.90
5705;DHT22;2877;48.238;11.160;2023-02-22T01:08:44;3.30;99.90
5705;DHT22;2877;48.238;11.160;2023-02-22T01:11:11;3.30;99.90
5705;DHT22;2877;48.238;11.160;2023-02-22T01:13:36;3.20;99.90
5705;DHT22;2877;48.238;11.160;2023-02-22T01:16:03;3.00;99.90
5705;DHT22;2877;48.238;11.160;2023-02-22T01:18:31;2.90;99.90
5705;DHT22;2877;48.238;11.160;2023-02-22T01:20:56;2.80;99.90
5705;DHT22;2877;48.238;11.160;2023-02-22T01:23:22;2.80;99.90
5705;DHT22;2877;48.238;11.160;2023-02-22T01:25:47;2.70;99.90
5705;DHT22;2877;48.238;11.160;2023-02-22T01:28:13;2.70;99.90
5705;DHT22;2877;48.238;11.160;2023-02-22T01:30:38;2.70;99.90
5705;DHT22;2877;48.238;11.160;2023-02-22T01:33:05;2.60;99.90
5705;DHT22;2877;48.238;11.160;2023-02-22T01:35:34;2.60;99.90
5705;DHT22;2877;48.238;11.160;2023-02-22T01:38:00;2.50;99.90
5705;DHT22;2877;48.238;11.160;2023-02-22T01:40:38;2.40;99.90
5705;DHT22;2877;48.238;11.160;2023-02-22T01:45:53;2.30;99.90
5705;DHT22;2877;48.238;11.160;2023-02-22T01:48:35;2.50;99.90
5705;DHT22;2877;48.238;11.160;2023-02-22T01:51:14;2.70;99.90
5705;DHT22;2877;48.238;11.160;2023-02-22T01:56:15;2.90;99.90
5705;DHT22;2877;48.238;11.160;2023-02-22T01:58:48;2.90;99.90
5705;DHT22;2877;48.238;11.160;2023-02-22T02:01:17;2.80;99.90
5705;DHT22;2877;48.238;11.160;2023-02-22T02:03:43;2.70;99.90
5705;DHT22;2877;48.238;11.160;2023-02-22T02:06:12;2.50;99.90
5705;DHT22;2877;48.238;11.160;2023-02-22T02:11:15;2.20;99.90
5705;DHT22;2877;48.238;11.160;2023-02-22T02:13:42;2.10;99.90
5705;DHT22;2877;48.238;11.160;2023-02-22T02:16:07;2.00;99.90
5705;DHT22;2877;48.238;11.160;2023-02-22T02:18:33;1.90;99.90
5705;DHT22;2877;48.238;11.160;2023-02-22T02:27:15;1.70;99.90
5705;DHT22;2877;48.238;11.160;2023-02-22T02:32:33;1.60;99.90
5705;DHT22;2877;48.238;11.160;2023-02-22T02:35:08;1.60;99.90
5705;DHT22;2877;48.238;11.160;2023-02-22T02:38:15;1.70;99.90
5705;DHT22;2877;48.238;11.160;2023-02-22T02:43:44;2.00;99.90
5705;DHT22;2877;48.238;11.160;2023-02-22T02:46:20;2.00;99.90
5705;DHT22;2877;48.238;11.160;2023-02-22T02:48:56;1.90;99.90
5705;DHT22;2877;48.238;11.160;2023-02-22T02:51:28;1.90;99.90
5705;DHT22;2877;48.238;11.160;2023-02-22T02:53:55;1.80;99.90
5705;DHT22;2877;48.238;11.160;2023-02-22T02:56:21;1.60;99.90
5705;DHT22;2877;48.238;11.160;2023-02-22T02:58:52;1.50;99.90
5705;DHT22;2877;48.238;11.160;2023-02-22T03:01:51;1.40;99.90
5705;DHT22;2877;48.238;11.160;2023-02-22T03:12:52;1.20;99.90
5705;DHT22;2877;48.238;11.160;2023-02-22T03:15:32;1.20;99.90
5705;DHT22;2877;48.238;11.160;2023-02-22T03:23:42;1.40;99.90
5705;DHT22;2877;48.238;11.160;2023-02-22T03:26:13;1.50;99.90
5705;DHT22;2877;48.238;11.160;2023-02-22T03:28:43;1.50;99.90
5705;DHT22;2877;48.238;11.160;2023-02-22T03:31:24;1.50;99.90
5705;DHT22;2877;48.238;11.160;2023-02-22T03:33:55;1.40;99.90
5705;DHT22;2877;48.238;11.160;2023-02-22T03:36:28;1.40;99.90
5705;DHT22;2877;48.238;11.160;2023-02-22T03:38:57;1.40;99.90
5705;DHT22;2877;48.238;11.160;2023-02-22T03:41:25;1.40;99.90
5705;DHT22;2877;48.238;11.160;2023-02-22T03:43:59;1.40;99.90
5705;DHT22;2877;48.238;11.160;2023-02-22T03:46:27;1.40;99.90
5705;DHT22;2877;48.238;11.160;2023-02-22T03:49:09;1.40;99.90
5705;DHT22;2877;48.238;11.160;2023-02-22T03:51:36;1.40;99.90
5705;DHT22;2877;48.238;11.160;2023-02-22T03:54:02;1.40;99.90
5705;DHT22;2877;48.238;11.160;2023-02-22T03:56:34;1.30;99.90
5705;DHT22;2877;48.238;11.160;2023-02-22T03:59:06;1.30;99.90
5705;DHT22;2877;48.238;11.160;2023-02-22T04:01:33;1.20;99.90
5705;DHT22;2877;48.238;11.160;2023-02-22T04:03:59;1.20;99.90
5705;DHT22;2877;48.238;11.160;2023-02-22T04:06:27;1.30;99.90
5705;DHT22;2877;48.238;11.160;2023-02-22T04:08:53;1.40;99.90
5705;DHT22;2877;48.238;11.160;2023-02-22T04:11:19;1.40;99.90
5705;DHT22;2877;48.238;11.160;2023-02-22T04:13:44;1.30;99.90
5705;DHT22;2877;48.238;11.160;2023-02-22T04:16:10;1.30;99.90
5705;DHT22;2877;48.238;11.160;2023-02-22T04:18:36;1.30;99.90
5705;DHT22;2877;48.238;11.160;2023-02-22T04:21:01;1.20;99.90
5705;DHT22;2877;48.238;11.160;2023-02-22T04:23:27;1.20;99.90
5705;DHT22;2877;48.238;11.160;2023-02-22T04:25:53;1.20;99.90
5705;DHT22;2877;48.238;11.160;2023-02-22T04:28:18;1.20;99.90
5705;DHT22;2877;48.238;11.160;2023-02-22T04:30:44;1.10;99.90
5705;DHT22;2877;48.238;11.160;2023-02-22T04:33:10;1.10;99.90
5705;DHT22;2877;48.238;11.160;2023-02-22T04:35:36;1.10;99.90
5705;DHT22;2877;48.238;11.160;2023-02-22T04:38:02;1.10;99.90
5705;DHT22;2877;48.238;11.160;2023-02-22T04:40:28;1.10;99.90
5705;DHT22;2877;48.238;11.160;2023-02-22T04:42:54;1.10;99.90
5705;DHT22;2877;48.238;11.160;2023-02-22T04:45:20;1.00;99.90
5705;DHT22;2877;48.238;11.160;2023-02-22T04:47:45;1.00;99.90
5705;DHT22;2877;48.238;11.160;2023-02-22T04:50:12;1.00;99.90
5705;DHT22;2877;48.238;11.160;2023-02-22T04:52:37;0.90;99.90
5705;DHT22;2877;48.238;11.160;2023-02-22T04:55:04;0.80;99.90
5705;DHT22;2877;48.238;11.160;2023-02-22T04:57:30;0.70;99.90
5705;DHT22;2877;48.238;11.160;2023-02-22T04:59:55;0.70;99.90
5705;DHT22;2877;48.238;11.160;2023-02-22T05:02:23;0.70;99.90
5705;DHT22;2877;48.238;11.160;2023-02-22T05:04:49;0.60;99.90
5705;DHT22;2877;48.238;11.160;2023-02-22T05:07:15;0.60;99.90
5705;DHT22;2877;48.238;11.160;2023-02-22T05:09:41;0.60;99.90
5705;DHT22;2877;48.238;11.160;2023-02-22T05:12:07;0.60;99.90
5705;DHT22;2877;48.238;11.160;2023-02-22T05:14:33;0.50;99.90
5705;DHT22;2877;48.238;11.160;2023-02-22T05:16:58;0.50;99.90
5705;DHT22;2877;48.238;11.160;2023-02-22T05:19:24;0.50;99.90
5705;DHT22;2877;48.238;11.160;2023-02-22T05:21:50;0.40;99.90
5705;DHT22;2877;48.238;11.160;2023-02-22T05:24:15;0.40;99.90
5705;DHT22;2877;48.238;11.160;2023-02-22T05:26:45;0.40;99.90
5705;DHT22;2877;48.238;11.160;2023-02-22T05:29:11;0.30;99.90
5705;DHT22;2877;48.238;11.160;2023-02-22T05:31:36;0.30;99.90
5705;DHT22;2877;48.238;11.160;2023-02-22T05:34:02;0.30;99.90
5705;DHT22;2877;48.238;11.160;2023-02-22T05:36:28;0.20;99.90
5705;DHT22;2877;48.238;11.160;2023-02-22T05:38:54;0.20;99.90
5705;DHT22;2877;48.238;11.160;2023-02-22T05:41:19;0.20;99.90
5705;DHT22;2877;48.238;11.160;2023-02-22T05:43:47;0.30;99.90
5705;DHT22;2877;48.238;11.160;2023-02-22T05:46:14;0.30;99.90
5705;DHT22;2877;48.238;11.160;2023-02-22T05:48:39;0.30;99.90
5705;DHT22;2877;48.238;11.160;2023-02-22T05:51:05;0.30;99.90
5705;DHT22;2877;48.238;11.160;2023-02-22T05:53:31;0.40;99.90
5705;DHT22;2877;48.238;11.160;2023-02-22T05:55:57;0.50;99.90
5705;DHT22;2877;48.238;11.160;2023-02-22T05:58:22;0.50;99.90
5705;DHT22;2877;48.238;11.160;2023-02-22T06:00:48;0.40;99.90
5705;DHT22;2877;48.238;11.160;2023-02-22T06:03:14;0.40;99.90
5705;DHT22;2877;48.238;11.160;2023-02-22T06:05:39;0.30;99.90
5705;DHT22;2877;48.238;11.160;2023-02-22T06:08:06;0.30;99.90
5705;DHT22;2877;48.238;11.160;2023-02-22T06:10:32;0.30;99.90
5705;DHT22;2877;48.238;11.160;2023-02-22T06:12:58;0.30;99.90
5705;DHT22;2877;48.238;11.160;2023-02-22T06:15:25;0.30;99.90
5705;DHT22;2877;48.238;11.160;2023-02-22T06:17:51;0.20;99.90
5705;DHT22;2877;48.238;11.160;2023-02-22T06:20:20;0.20;99.90
5705;DHT22;2877;48.238;11.160;2023-02-22T06:22:48;0.20;99.90
5705;DHT22;2877;48.238;11.160;2023-02-22T06:25:15;0.20;99.90
5705;DHT22;2877;48.238;11.160;2023-02-22T06:27:41;0.30;99.90
5705;DHT22;2877;48.238;11.160;2023-02-22T06:30:08;0.40;99.90
5705;DHT22;2877;48.238;11.160;2023-02-22T06:32:34;0.40;99.90
5705;DHT22;2877;48.238;11.160;2023-02-22T06:34:59;0.40;99.90
5705;DHT22;2877;48.238;11.160;2023-02-22T06:37:25;0.40;99.90
5705;DHT22;2877;48.238;11.160;2023-02-22T06:39:50;0.40;99.90
5705;DHT22;2877;48.238;11.160;2023-02-22T06:42:17;0.30;99.90
5705;DHT22;2877;48.238;11.160;2023-02-22T06:44:42;0.40;99.90
5705;DHT22;2877;48.238;11.160;2023-02-22T06:47:08;0.40;99.90
5705;DHT22;2877;48.238;11.160;2023-02-22T06:49:34;0.40;99.90
5705;DHT22;2877;48.238;11.160;2023-02-22T06:52:00;0.50;99.90
5705;DHT22;2877;48.238;11.160;2023-02-22T06:54:25;0.50;99.90
5705;DHT22;2877;48.238;11.160;2023-02-22T06:56:51;0.50;99.90
5705;DHT22;2877;48.238;11.160;2023-02-22T06:59:17;0.50;99.90
5705;DHT22;2877;48.238;11.160;2023-02-22T07:01:43;0.50;99.90
5705;DHT22;2877;48.238;11.160;2023-02-22T07:04:08;0.60;99.90
5705;DHT22;2877;48.238;11.160;2023-02-22T07:06:34;0.60;99.90
5705;DHT22;2877;48.238;11.160;2023-02-22T07:09:00;0.60;99.90
5705;DHT22;2877;48.238;11.160;2023-02-22T07:11:26;0.70;99.90
5705;DHT22;2877;48.238;11.160;2023-02-22T07:13:52;0.70;99.90
5705;DHT22;2877;48.238;11.160;2023-02-22T07:16:19;0.80;99.90
5705;DHT22;2877;48.238;11.160;2023-02-22T07:18:45;0.80;99.90
5705;DHT22;2877;48.238;11.160;2023-02-22T07:21:10;0.80;99.90
5705;DHT22;2877;48.238;11.160;2023-02-22T07:23:36;0.90;99.90
5705;DHT22;2877;48.238;11.160;2023-02-22T07:26:03;0.90;99.90
5705;DHT22;2877;48.238;11.160;2023-02-22T07:28:29;1.00;99.90
5705;DHT22;2877;48.238;11.160;2023-02-22T07:30:55;1.10;99.90
5705;DHT22;2877;48.238;11.160;2023-02-22T07:33:20;1.20;99.90
5705;DHT22;2877;48.238;11.160;2023-02-22T07:35:48;1.20;99.90
5705;DHT22;2877;48.238;11.160;2023-02-22T07:38:16;1.30;99.90
5705;DHT22;2877;48.238;11.160;2023-02-22T07:40:42;1.40;99.90
5705;DHT22;2877;48.238;11.160;2023-02-22T07:43:24;1.40;99.90
5705;DHT22;2877;48.238;11.160;2023-02-22T07:45:53;1.60;99.90
5705;DHT22;2877;48.238;11.160;2023-02-22T07:48:20;1.70;99.90
5705;DHT22;2877;48.238;11.160;2023-02-22T07:50:46;1.80;99.90
5705;DHT22;2877;48.238;11.160;2023-02-22T07:53:19;2.00;99.90
5705;DHT22;2877;48.238;11.160;2023-02-22T07:55:45;2.10;99.90
5705;DHT22;2877;48.238;11.160;2023-02-22T07:58:19;2.20;99.90
5705;DHT22;2877;48.238;11.160;2023-02-22T08:00:44;2.50;99.90
5705;DHT22;2877;48.238;11.160;2023-02-22T08:03:14;2.70;99.90
5705;DHT22;2877;48.238;11.160;2023-02-22T08:05:44;2.90;99.90
5705;DHT22;2877;48.238;11.160;2023-02-22T08:08:10;3.10;99.90
5705;DHT22;2877;48.238;11.160;2023-02-22T08:10:36;3.30;99.90
5705;DHT22;2877;48.238;11.160;2023-02-22T08:13:03;3.50;99.90
5705;DHT22;2877;48.238;11.160;2023-02-22T08:15:32;3.70;99.90
5705;DHT22;2877;48.238;11.160;2023-02-22T08:17:59;3.80;99.90
5705;DHT22;2877;48.238;11.160;2023-02-22T08:20:26;4.00;99.90
5705;DHT22;2877;48.238;11.160;2023-02-22T08:22:52;4.20;99.90
5705;DHT22;2877;48.238;11.160;2023-02-22T08:25:19;4.40;99.90
5705;DHT22;2877;48.238;11.160;2023-02-22T08:27:45;4.60;99.90
5705;DHT22;2877;48.238;11.160;2023-02-22T08:30:16;4.80;99.90
5705;DHT22;2877;48.238;11.160;2023-02-22T08:32:42;5.00;99.90
5705;DHT22;2877;48.238;11.160;2023-02-22T08:35:09;5.20;99.90
5705;DHT22;2877;48.238;11.160;2023-02-22T08:37:34;5.40;99.90
5705;DHT22;2877;48.238;11.160;2023-02-22T08:40:00;5.50;99.90
5705;DHT22;2877;48.238;11.160;2023-02-22T08:42:25;5.70;99.90
5705;DHT22;2877;48.238;11.160;2023-02-22T08:44:51;5.80;99.90
5705;DHT22;2877;48.238;11.160;2023-02-22T08:47:16;6.00;99.90
5705;DHT22;2877;48.238;11.160;2023-02-22T08:49:42;6.10;99.90
5705;DHT22;2877;48.238;11.160;2023-02-22T08:52:08;6.20;99.90
5705;DHT22;2877;48.238;11.160;2023-02-22T08:54:33;6.30;99.90
5705;DHT22;2877;48.238;11.160;2023-02-22T08:56:59;6.40;99.90
5705;DHT22;2877;48.238;11.160;2023-02-22T08:59:24;6.50;99.90
5705;DHT22;2877;48.238;11.160;2023-02-22T09:01:50;6.60;99.90
5705;DHT22;2877;48.238;11.160;2023-02-22T09:04:16;6.70;99.90
5705;DHT22;2877;48.238;11.160;2023-02-22T09:06:42;6.80;99.90
5705;DHT22;2877;48.238;11.160;2023-02-22T09:09:08;6.90;99.90
5705;DHT22;2877;48.238;11.160;2023-02-22T09:11:33;7.00;99.90
5705;DHT22;2877;48.238;11.160;2023-02-22T09:13:59;7.20;99.90
5705;DHT22;2877;48.238;11.160;2023-02-22T09:16:24;7.40;99.90
5705;DHT22;2877;48.238;11.160;2023-02-22T09:18:50;7.50;99.90
5705;DHT22;2877;48.238;11.160;2023-02-22T09:21:16;7.60;99.90
5705;DHT22;2877;48.238;11.160;2023-02-22T09:23:41;7.80;99.90
5705;DHT22;2877;48.238;11.160;2023-02-22T09:26:09;7.90;99.90
5705;DHT22;2877;48.238;11.160;2023-02-22T09:28:35;8.10;99.90
5705;DHT22;2877;48.238;11.160;2023-02-22T09:31:00;8.30;99.90
5705;DHT22;2877;48.238;11.160;2023-02-22T09:33:26;8.50;99.90
5705;DHT22;2877;48.238;11.160;2023-02-22T09:35:52;8.60;99.90
5705;DHT22;2877;48.238;11.160;2023-02-22T09:38:19;8.80;99.90
5705;DHT22;2877;48.238;11.160;2023-02-22T09:40:51;8.90;99.90
5705;DHT22;2877;48.238;11.160;2023-02-22T09:48:31;9.40;99.90
5705;DHT22;2877;48.238;11.160;2023-02-22T09:51:01;9.40;99.90
5705;DHT22;2877;48.238;11.160;2023-02-22T09:53:34;9.60;99.90
5705;DHT22;2877;48.238;11.160;2023-02-22T09:56:07;9.70;99.90
5705;DHT22;2877;48.238;11.160;2023-02-22T09:58:40;9.80;99.90
5705;DHT22;2877;48.238;11.160;2023-02-22T10:01:18;9.70;99.90
5705;DHT22;2877;48.238;11.160;2023-02-22T10:06:31;9.70;99.90
5705;DHT22;2877;48.238;11.160;2023-02-22T10:09:00;9.70;99.90
5705;DHT22;2877;48.238;11.160;2023-02-22T10:14:33;9.90;99.90
5705;DHT22;2877;48.238;11.160;2023-02-22T10:17:29;9.90;99.90
5705;DHT22;2877;48.238;11.160;2023-02-22T10:25:38;10.20;99.90
5705;DHT22;2877;48.238;11.160;2023-02-22T10:28:19;10.40;99.90
5705;DHT22;2877;48.238;11.160;2023-02-22T10:30:50;10.60;98.60
5705;DHT22;2877;48.238;11.160;2023-02-22T10:33:26;10.70;97.20
5705;DHT22;2877;48.238;11.160;2023-02-22T10:35:54;10.90;96.10
5705;DHT22;2877;48.238;11.160;2023-02-22T10:38:23;11.10;97.40
5705;DHT22;2877;48.238;11.160;2023-02-22T10:40:57;11.20;95.70
5705;DHT22;2877;48.238;11.160;2023-02-22T10:43:25;11.30;95.40
5705;DHT22;2877;48.238;11.160;2023-02-22T10:45:56;11.30;94.70
5705;DHT22;2877;48.238;11.160;2023-02-22T10:48:25;11.30;93.30
5705;DHT22;2877;48.238;11.160;2023-02-22T10:50:58;11.40;92.30
5705;DHT22;2877;48.238;11.160;2023-02-22T10:53:25;11.60;92.70
5705;DHT22;2877;48.238;11.160;2023-02-22T10:56:20;11.80;91.50
5705;DHT22;2877;48.238;11.160;2023-02-22T10:58:54;11.90;91.00
5705;DHT22;2877;48.238;11.160;2023-02-22T11:01:43;12.00;88.10
5705;DHT22;2877;48.238;11.160;2023-02-22T11:04:17;11.90;87.00
5705;DHT22;2877;48.238;11.160;2023-02-22T11:06:45;11.90;88.60
5705;DHT22;2877;48.238;11.160;2023-02-22T11:09:20;11.90;87.00
5705;DHT22;2877;48.238;11.160;2023-02-22T11:12:05;12.00;86.90
5705;DHT22;2877;48.238;11.160;2023-02-22T11:14:32;12.20;87.50
5705;DHT22;2877;48.238;11.160;2023-02-22T11:16:59;12.40;87.60
5705;DHT22;2877;48.238;11.160;2023-02-22T11:19:26;12.50;87.60
5705;DHT22;2877;48.238;11.160;2023-02-22T11:21:58;12.50;85.20
5705;DHT22;2877;48.238;11.160;2023-02-22T11:24:26;12.50;84.60
5705;DHT22;2877;48.238;11.160;2023-02-22T11:27:00;12.50;84.40
5705;DHT22;2877;48.238;11.160;2023-02-22T11:29:36;12.60;84.30
5705;DHT22;2877;48.238;11.160;2023-02-22T11:32:12;12.60;84.10
5705;DHT22;2877;48.238;11.160;2023-02-22T11:34:40;12.60;81.90
5705;DHT22;2877;48.238;11.160;2023-02-22T11:39:48;12.60;82.00
5705;DHT22;2877;48.238;11.160;2023-02-22T11:42:28;12.60;82.00
5705;DHT22;2877;48.238;11.160;2023-02-22T11:45:19;12.60;81.80
5705;DHT22;2877;48.238;11.160;2023-02-22T11:50:40;12.60;80.00
5705;DHT22;2877;48.238;11.160;2023-02-22T11:53:28;12.60;78.20
5705;DHT22;2877;48.238;11.160;2023-02-22T11:56:04;12.60;78.30
5705;DHT22;2877;48.238;11.160;2023-02-22T12:01:30;12.50;76.80
5705;DHT22;2877;48.238;11.160;2023-02-22T12:04:25;12.70;77.50
5705;DHT22;2877;48.238;11.160;2023-02-22T12:07:13;13.10;78.90
5705;DHT22;2877;48.238;11.160;2023-02-22T12:12:52;13.30;74.40
5705;DHT22;2877;48.238;11.160;2023-02-22T12:15:30;13.40;79.10
5705;DHT22;2877;48.238;11.160;2023-02-22T12:20:59;13.40;76.20
5705;DHT22;2877;48.238;11.160;2023-02-22T12:23:42;13.50;77.60
5705;DHT22;2877;48.238;11.160;2023-02-22T12:28:57;13.80;75.20
5705;DHT22;2877;48.238;11.160;2023-02-22T12:31:51;13.90;74.30
5705;DHT22;2877;48.238;11.160;2023-02-22T12:36:54;13.90;71.10
5705;DHT22;2877;48.238;11.160;2023-02-22T12:39:53;13.90;72.20
5705;DHT22;2877;48.238;11.160;2023-02-22T12:51:00;14.60;70.40
5705;DHT22;2877;48.238;11.160;2023-02-22T12:53:35;14.50;67.50
5705;DHT22;2877;48.238;11.160;2023-02-22T12:56:18;14.50;68.40
5705;DHT22;2877;48.238;11.160;2023-02-22T12:58:50;14.60;72.00
5705;DHT22;2877;48.238;11.160;2023-02-22T13:01:24;14.80;70.50
5705;DHT22;2877;48.238;11.160;2023-02-22T13:03:53;15.00;68.70
5705;DHT22;2877;48.238;11.160;2023-02-22T13:19:54;15.20;69.70
5705;DHT22;2877;48.238;11.160;2023-02-22T13:22:32;15.00;69.50
5705;DHT22;2877;48.238;11.160;2023-02-22T13:25:22;14.90;67.80
5705;DHT22;2877;48.238;11.160;2023-02-22T13:27:57;14.90;66.80
5705;DHT22;2877;48.238;11.160;2023-02-22T13:30:42;14.60;65.70
5705;DHT22;2877;48.238;11.160;2023-02-22T13:35:49;14.50;65.70
5705;DHT22;2877;48.238;11.160;2023-02-22T13:38:43;14.50;67.80
5705;DHT22;2877;48.238;11.160;2023-02-22T13:47:16;15.00;68.40
5705;DHT22;2877;48.238;11.160;2023-02-22T13:52:46;15.20;66.50
5705;DHT22;2877;48.238;11.160;2023-02-22T13:55:21;15.00;67.90
5705;DHT22;2877;48.238;11.160;2023-02-22T13:58:05;15.00;67.30
5705;DHT22;2877;48.238;11.160;2023-02-22T14:00:55;15.10;67.00
5705;DHT22;2877;48.238;11.160;2023-02-22T14:05:52;15.30;68.90
5705;DHT22;2877;48.238;11.160;2023-02-22T14:13:21;14.90;68.10
5705;DHT22;2877;48.238;11.160;2023-02-22T14:18:41;15.00;68.20
5705;DHT22;2877;48.238;11.160;2023-02-22T14:21:11;14.80;67.60
5705;DHT22;2877;48.238;11.160;2023-02-22T14:28:50;14.60;69.90
5705;DHT22;2877;48.238;11.160;2023-02-22T14:31:18;14.80;71.60
5705;DHT22;2877;48.238;11.160;2023-02-22T14:36:53;14.90;69.30
5705;DHT22;2877;48.238;11.160;2023-02-22T14:39:26;14.70;69.80
5705;DHT22;2877;48.238;11.160;2023-02-22T14:42:04;14.70;69.50
5705;DHT22;2877;48.238;11.160;2023-02-22T14:48:18;14.70;71.90
5705;DHT22;2877;48.238;11.160;2023-02-22T14:50:51;14.60;69.50
5705;DHT22;2877;48.238;11.160;2023-02-22T14:53:23;14.60;70.30
5705;DHT22;2877;48.238;11.160;2023-02-22T14:56:03;14.70;70.70
5705;DHT22;2877;48.238;11.160;2023-02-22T14:58:56;14.70;70.10
5705;DHT22;2877;48.238;11.160;2023-02-22T15:03:55;14.90;69.90
5705;DHT22;2877;48.238;11.160;2023-02-22T15:06:25;14.90;70.10
5705;DHT22;2877;48.238;11.160;2023-02-22T15:09:27;14.80;70.50
5705;DHT22;2877;48.238;11.160;2023-02-22T15:12:08;14.70;72.30
5705;DHT22;2877;48.238;11.160;2023-02-22T15:14:38;14.90;72.20
5705;DHT22;2877;48.238;11.160;2023-02-22T15:17:12;14.90;70.00
5705;DHT22;2877;48.238;11.160;2023-02-22T15:19:41;14.70;70.20
5705;DHT22;2877;48.238;11.160;2023-02-22T15:22:21;14.50;71.80
5705;DHT22;2877;48.238;11.160;2023-02-22T15:27:23;14.30;72.00
5705;DHT22;2877;48.238;11.160;2023-02-22T15:29:48;14.20;72.90
5705;DHT22;2877;48.238;11.160;2023-02-22T15:34:54;13.90;73.50
5705;DHT22;2877;48.238;11.160;2023-02-22T15:37:23;13.80;74.60
5705;DHT22;2877;48.238;11.160;2023-02-22T15:40:07;13.70;75.20
5705;DHT22;2877;48.238;11.160;2023-02-22T15:42:51;13.60;76.90
5705;DHT22;2877;48.238;11.160;2023-02-22T15:45:20;13.50;76.80
5705;DHT22;2877;48.238;11.160;2023-02-22T15:47:50;13.50;78.80
5705;DHT22;2877;48.238;11.160;2023-02-22T15:50:22;13.40;80.00
5705;DHT22;2877;48.238;11.160;2023-02-22T15:53:03;13.30;81.90
5705;DHT22;2877;48.238;11.160;2023-02-22T15:55:39;13.20;82.30
5705;DHT22;2877;48.238;11.160;2023-02-22T16:01:10;13.00;83.80
5705;DHT22;2877;48.238;11.160;2023-02-22T16:03:54;12.90;84.90
5705;DHT22;2877;48.238;11.160;2023-02-22T16:06:34;12.70;84.90
5705;DHT22;2877;48.238;11.160;2023-02-22T16:09:13;12.70;85.30
5705;DHT22;2877;48.238;11.160;2023-02-22T16:11:41;12.60;87.50
5705;DHT22;2877;48.238;11.160;2023-02-22T16:14:28;12.50;88.70
5705;DHT22;2877;48.238;11.160;2023-02-22T16:22:31;12.10;92.30
5705;DHT22;2877;48.238;11.160;2023-02-22T16:25:32;12.00;92.70
5705;DHT22;2877;48.238;11.160;2023-02-22T16:28:02;11.80;91.90
5705;DHT22;2877;48.238;11.160;2023-02-22T16:30:38;11.60;91.10
5705;DHT22;2877;48.238;11.160;2023-02-22T16:33:06;11.50;91.70
5705;DHT22;2877;48.238;11.160;2023-02-22T16:35:34;11.40;92.00
5705;DHT22;2877;48.238;11.160;2023-02-22T16:38:02;11.20;92.70
5705;DHT22;2877;48.238;11.160;2023-02-22T16:40:31;11.10;93.20
5705;DHT22;2877;48.238;11.160;2023-02-22T16:43:03;10.90;94.30
5705;DHT22;2877;48.238;11.160;2023-02-22T16:45:30;10.70;94.10
5705;DHT22;2877;48.238;11.160;2023-02-22T16:47:58;10.60;94.50
5705;DHT22;2877;48.238;11.160;2023-02-22T16:50:24;10.50;94.50
5705;DHT22;2877;48.238;11.160;2023-02-22T16:52:51;10.30;95.10
5705;DHT22;2877;48.238;11.160;2023-02-22T16:55:18;10.20;97.80
5705;DHT22;2877;48.238;11.160;2023-02-22T16:57:45;10.00;99.00
5705;DHT22;2877;48.238;11.160;2023-02-22T17:00:15;9.80;99.90
5705;DHT22;2877;48.238;11.160;2023-02-22T17:02:41;9.70;99.90
5705;DHT22;2877;48.238;11.160;2023-02-22T17:05:08;9.50;99.90
5705;DHT22;2877;48.238;11.160;2023-02-22T17:07:37;9.40;99.90
5705;DHT22;2877;48.238;11.160;2023-02-22T17:10:05;9.30;99.90
5705;DHT22;2877;48.238;11.160;2023-02-22T17:12:31;9.30;99.90
5705;DHT22;2877;48.238;11.160;2023-02-22T17:14:56;9.10;99.90
5705;DHT22;2877;48.238;11.160;2023-02-22T17:17:22;9.10;99.90
5705;DHT22;2877;48.238;11.160;2023-02-22T17:19:48;9.00;99.90
5705;DHT22;2877;48.238;11.160;2023-02-22T17:22:18;8.90;99.90
5705;DHT22;2877;48.238;11.160;2023-02-22T17:24:44;8.80;99.90
5705;DHT22;2877;48.238;11.160;2023-02-22T17:27:10;8.80;99.90
5705;DHT22;2877;48.238;11.160;2023-02-22T17:29:36;8.70;99.90
5705;DHT22;2877;48.238;11.160;2023-02-22T17:32:01;8.60;99.90
5705;DHT22;2877;48.238;11.160;2023-02-22T17:34:27;8.60;99.90
5705;DHT22;2877;48.238;11.160;2023-02-22T17:36:52;8.50;99.90
5705;DHT22;2877;48.238;11.160;2023-02-22T17:39:18;8.50;99.90
5705;DHT22;2877;48.238;11.160;2023-02-22T17:41:43;8.50;99.90
5705;DHT22;2877;48.238;11.160;2023-02-22T17:44:10;8.40;99.90
5705;DHT22;2877;48.238;11.160;2023-02-22T17:46:36;8.40;99.90
5705;DHT22;2877;48.238;11.160;2023-02-22T17:49:05;8.30;99.90
5705;DHT22;2877;48.238;11.160;2023-02-22T17:51:31;8.10;99.90
5705;DHT22;2877;48.238;11.160;2023-02-22T17:53:56;8.00;99.90
5705;DHT22;2877;48.238;11.160;2023-02-22T17:56:22;7.80;99.90
5705;DHT22;2877;48.238;11.160;2023-02-22T17:58:50;7.70;99.90
5705;DHT22;2877;48.238;11.160;2023-02-22T18:01:22;7.50;99.90
5705;DHT22;2877;48.238;11.160;2023-02-22T18:03:50;7.40;99.90
5705;DHT22;2877;48.238;11.160;2023-02-22T18:06:18;7.40;99.90
5705;DHT22;2877;48.238;11.160;2023-02-22T18:08:45;7.30;99.90
5705;DHT22;2877;48.238;11.160;2023-02-22T18:11:13;7.20;99.90
5705;DHT22;2877;48.238;11.160;2023-02-22T18:13:38;7.10;99.90
5705;DHT22;2877;48.238;11.160;2023-02-22T18:16:04;7.10;99.90
5705;DHT22;2877;48.238;11.160;2023-02-22T18:18:31;7.10;99.90
5705;DHT22;2877;48.238;11.160;2023-02-22T18:20:57;7.00;99.90
5705;DHT22;2877;48.238;11.160;2023-02-22T18:23:27;6.90;99.90
5705;DHT22;2877;48.238;11.160;2023-02-22T18:25:54;6.90;99.90
5705;DHT22;2877;48.238;11.160;2023-02-22T18:28:20;6.80;99.90
5705;DHT22;2877;48.238;11.160;2023-02-22T18:30:48;6.90;99.90
5705;DHT22;2877;48.238;11.160;2023-02-22T18:33:14;6.90;99.90
5705;DHT22;2877;48.238;11.160;2023-02-22T18:35:43;6.90;99.90